DNAA/ABV METAR and TAF weather

Enter ICAO airport designator
Station Type Date Time Source
DNAA METAR 2019/12/11 14:00 UTC NOAA

DNAA 111400Z 16007KT 9999 FEW014 35/17 Q1010 NOSIG


Station Type Date Time Source
DNAA Decoded METAR 2019/12/11 14:00 UTC NOAA

Station name not available
Dec 11, 2019 - 09:00 AM EST / 2019.12.11 1400 UTC
Wind: from the SSE (160 degrees) at 8 MPH (7 KT):0
Visibility: greater than 7 mile(s):0
Sky conditions: mostly clear
Temperature: 95 F (35 C)
Heat index: 96.1 F (35.6 C):1
Dew Point: 62 F (17 C)
Relative Humidity: 34%
Pressure (altimeter): 29.83 in. Hg (1010 hPa)
ob: DNAA 111400Z 16007KT 9999 FEW014 35/17 Q1010 NOSIG
cycle: 14

Station Type Date Time Source
DNAA TAF 2019/12/11 12:00 UTC NOAA

TAF DNAA 111100Z 1112/1118 20004KT 9999 FEW013
BECMG 1118/1120 05010KT

Example: see airport list